createdAt,value
2023-01-18T00:00:32.408Z,1.86
2023-01-18T00:05:54.805Z,1.87
2023-01-18T00:11:16.882Z,1.84
2023-01-18T00:16:38.776Z,1.80
2023-01-18T00:22:00.762Z,1.70
2023-01-18T00:27:22.597Z,1.62
2023-01-18T00:32:45.367Z,1.53
2023-01-18T00:38:07.287Z,1.61
2023-01-18T00:43:29.202Z,1.72
2023-01-18T00:48:52.266Z,1.77
2023-01-18T00:54:14.166Z,1.77
2023-01-18T00:59:36.043Z,1.74
2023-01-18T01:04:57.859Z,1.77
2023-01-18T01:10:19.764Z,1.69
2023-01-18T01:15:41.660Z,1.73
2023-01-18T01:21:04.553Z,1.67
2023-01-18T01:26:26.391Z,1.65
2023-01-18T01:31:48.256Z,1.77
2023-01-18T01:37:10.083Z,1.75
2023-01-18T01:42:31.940Z,1.76
2023-01-18T01:47:55.288Z,1.73
2023-01-18T01:53:17.149Z,1.79
2023-01-18T01:58:40.039Z,1.83
2023-01-18T02:04:02.965Z,1.73
2023-01-18T02:09:24.994Z,1.73
2023-01-18T02:14:47.186Z,1.75
2023-01-18T02:20:42.396Z,1.92
2023-01-18T02:26:17.812Z,1.83
2023-01-18T02:31:56.857Z,1.85
2023-01-18T02:37:33.698Z,1.76
2023-01-18T02:43:00.865Z,1.81
2023-01-18T02:48:24.727Z,2.01
2023-01-18T02:53:48.732Z,1.87
2023-01-18T02:59:33.408Z,1.95
2023-01-18T03:04:55.824Z,2.08
2023-01-18T03:10:17.878Z,1.97
2023-01-18T03:15:42.629Z,1.82
2023-01-18T03:21:06.538Z,1.95
2023-01-18T03:26:28.676Z,2.03
2023-01-18T03:32:04.907Z,2.01
2023-01-18T03:37:31.520Z,1.96
2023-01-18T03:43:08.438Z,1.95
2023-01-18T03:48:32.541Z,1.88
2023-01-18T03:54:29.047Z,1.81
2023-01-18T03:59:51.795Z,1.88
2023-01-18T04:05:14.236Z,1.94
2023-01-18T04:10:36.079Z,1.86
2023-01-18T04:15:57.923Z,1.94
2023-01-18T04:21:19.782Z,1.88
2023-01-18T04:26:41.669Z,2.11
2023-01-18T04:32:04.498Z,2.10
2023-01-18T04:37:26.556Z,2.13
2023-01-18T04:42:52.892Z,2.10
2023-01-18T04:48:14.623Z,2.02
2023-01-18T04:53:36.479Z,2.27
2023-01-18T04:58:58.344Z,2.37
2023-01-18T05:04:20.826Z,2.26
2023-01-18T05:09:42.705Z,2.33
2023-01-18T05:15:05.204Z,2.34
2023-01-18T05:20:27.129Z,2.39
2023-01-18T05:25:53.908Z,2.29
2023-01-18T05:31:17.547Z,2.38
2023-01-18T05:36:39.450Z,2.27
2023-01-18T05:42:01.701Z,2.09
2023-01-18T05:47:23.557Z,2.15
2023-01-18T05:52:45.379Z,2.15
2023-01-18T05:58:07.729Z,2.23
2023-01-18T06:03:29.666Z,2.25
2023-01-18T06:08:51.761Z,2.01
2023-01-18T06:14:13.687Z,2.12
2023-01-18T06:19:36.162Z,2.06
2023-01-18T06:24:58.422Z,2.08
2023-01-18T06:30:20.855Z,2.07
2023-01-18T06:35:43.203Z,2.03
2023-01-18T06:41:05.210Z,1.99
2023-01-18T06:46:27.053Z,2.14
2023-01-18T06:51:49.085Z,2.15
2023-01-18T06:57:11.531Z,2.05
2023-01-18T07:02:33.961Z,2.10
2023-01-18T07:07:55.796Z,2.06
2023-01-18T07:13:17.663Z,2.20
2023-01-18T07:18:39.641Z,2.40
2023-01-18T07:24:01.541Z,2.32
2023-01-18T07:29:23.440Z,2.28
2023-01-18T07:34:45.396Z,2.24
2023-01-18T07:40:08.086Z,2.35
2023-01-18T07:45:30.303Z,2.46
2023-01-18T07:50:57.266Z,2.30
2023-01-18T07:56:19.186Z,2.48
2023-01-18T08:01:41.141Z,2.43
2023-01-18T08:07:03.084Z,2.41
2023-01-18T08:12:24.986Z,2.44
2023-01-18T08:17:46.844Z,2.48
2023-01-18T08:23:08.991Z,2.33
2023-01-18T08:28:31.368Z,2.32
2023-01-18T08:33:53.502Z,2.58
2023-01-18T08:39:15.381Z,2.59
2023-01-18T08:44:37.214Z,2.52
2023-01-18T08:49:59.186Z,2.75
2023-01-18T08:55:22.507Z,2.67
2023-01-18T09:00:44.402Z,2.89
2023-01-18T09:06:07.136Z,2.79
2023-01-18T09:11:29.195Z,2.74
2023-01-18T09:16:51.087Z,2.79
2023-01-18T09:22:13.063Z,2.79
2023-01-18T09:27:34.955Z,2.57
2023-01-18T09:32:58.517Z,2.80
2023-01-18T09:38:20.737Z,2.95
2023-01-18T09:43:50.109Z,2.70
2023-01-18T09:49:21.763Z,2.73
2023-01-18T09:55:02.367Z,2.56
2023-01-18T10:00:26.040Z,2.55
2023-01-18T10:06:02.624Z,2.65
2023-01-18T10:11:30.204Z,2.87
2023-01-18T10:16:59.097Z,2.86
2023-01-18T10:22:37.759Z,2.81
2023-01-18T10:28:08.555Z,2.92
2023-01-18T10:33:35.781Z,2.70
2023-01-18T10:39:00.190Z,2.85
2023-01-18T10:44:22.087Z,2.73
2023-01-18T10:49:46.028Z,2.75
2023-01-18T10:55:15.390Z,2.74
2023-01-18T11:00:37.397Z,2.91
2023-01-18T11:06:06.967Z,2.63
2023-01-18T11:11:32.754Z,2.69
2023-01-18T11:17:12.735Z,2.76
2023-01-18T11:22:35.494Z,2.87
2023-01-18T11:28:02.473Z,2.89
2023-01-18T11:33:27.348Z,2.94
2023-01-18T11:38:49.228Z,3.06
2023-01-18T11:44:25.083Z,3.18
2023-01-18T11:49:55.001Z,2.98
2023-01-18T11:55:40.793Z,3.03
2023-01-18T12:01:24.779Z,2.91
2023-01-18T12:06:55.165Z,2.91
2023-01-18T12:12:45.416Z,2.91
2023-01-18T12:18:14.033Z,2.96
2023-01-18T12:23:54.584Z,2.96
2023-01-18T12:29:46.808Z,2.95
2023-01-18T12:35:30.480Z,2.88
2023-01-18T12:41:01.879Z,3.29
2023-01-18T12:46:33.293Z,3.48
2023-01-18T12:52:17.650Z,3.35
2023-01-18T12:57:40.671Z,3.45
2023-01-18T13:03:09.710Z,3.39
2023-01-18T13:08:44.579Z,3.45
2023-01-18T13:14:07.247Z,3.09
2023-01-18T13:19:44.440Z,3.25
2023-01-18T13:25:24.158Z,3.29
2023-01-18T13:30:59.969Z,3.38
2023-01-18T13:36:23.128Z,3.10
2023-01-18T13:42:08.391Z,3.35
2023-01-18T13:47:36.272Z,3.41
2023-01-18T13:53:13.228Z,3.40
2023-01-18T13:58:36.153Z,3.25
2023-01-18T14:04:07.142Z,3.32
2023-01-18T14:09:46.094Z,3.24
2023-01-18T14:15:24.394Z,3.18
2023-01-18T14:21:00.749Z,3.13
2023-01-18T14:26:27.168Z,2.68
2023-01-18T14:31:55.647Z,2.92
2023-01-18T14:37:27.764Z,3.06
2023-01-18T14:42:49.565Z,2.96
2023-01-18T14:48:16.587Z,3.02
2023-01-18T14:53:47.317Z,2.84
2023-01-18T14:59:24.909Z,2.83
2023-01-18T15:04:46.772Z,2.76
2023-01-18T15:10:10.529Z,2.82
2023-01-18T15:15:40.834Z,2.78
2023-01-18T15:21:05.218Z,2.78
2023-01-18T15:26:35.025Z,2.69
2023-01-18T15:31:57.938Z,2.72
2023-01-18T15:37:33.886Z,2.73
2023-01-18T15:42:58.403Z,2.83
2023-01-18T15:48:23.012Z,2.79
2023-01-18T15:53:48.598Z,2.67
2023-01-18T15:59:10.811Z,2.49
2023-01-18T16:04:33.538Z,2.35
2023-01-18T16:10:17.102Z,2.33
2023-01-18T16:15:39.416Z,2.55
2023-01-18T16:21:09.276Z,2.44
2023-01-18T16:26:31.254Z,2.27
2023-01-18T16:32:21.864Z,2.36
2023-01-18T16:37:44.085Z,2.26
2023-01-18T16:43:18.518Z,2.28
2023-01-18T16:48:40.423Z,2.23
2023-01-18T16:54:02.256Z,2.16
2023-01-18T16:59:24.096Z,2.17
2023-01-18T17:04:45.937Z,2.10
2023-01-18T17:10:19.045Z,2.13
2023-01-18T17:15:41.072Z,2.17
2023-01-18T17:21:02.966Z,2.19
2023-01-18T17:26:24.851Z,2.24
2023-01-18T17:31:55.015Z,2.30
2023-01-18T17:37:16.915Z,2.06
2023-01-18T17:42:38.791Z,2.25
2023-01-18T17:48:01.367Z,2.23
2023-01-18T17:53:23.242Z,2.08
2023-01-18T17:58:46.917Z,2.13
2023-01-18T18:04:08.787Z,2.22
2023-01-18T18:09:31.128Z,2.06
2023-01-18T18:14:52.983Z,2.16
2023-01-18T18:20:15.275Z,2.12
2023-01-18T18:25:37.707Z,2.22
2023-01-18T18:31:00.546Z,2.20
2023-01-18T18:36:22.507Z,2.13
2023-01-18T18:41:44.910Z,2.26
2023-01-18T18:47:07.587Z,2.20
2023-01-18T18:52:29.508Z,2.23
2023-01-18T18:57:51.518Z,2.18
2023-01-18T19:03:13.726Z,2.25
2023-01-18T19:08:35.699Z,2.10
2023-01-18T19:13:57.576Z,2.13
2023-01-18T19:19:20.342Z,2.15
2023-01-18T19:24:42.252Z,2.12
2023-01-18T19:30:04.571Z,2.23
2023-01-18T19:35:27.095Z,2.21
2023-01-18T19:40:49.036Z,2.26
2023-01-18T19:46:12.624Z,2.08
2023-01-18T19:51:34.834Z,2.15
2023-01-18T19:56:56.753Z,2.26
2023-01-18T20:02:19.062Z,2.32
2023-01-18T20:07:41.100Z,2.39
2023-01-18T20:13:03.312Z,2.23
2023-01-18T20:18:26.704Z,2.31
2023-01-18T20:23:48.588Z,2.41
2023-01-18T20:29:10.644Z,2.45
2023-01-18T20:34:34.084Z,2.47
2023-01-18T20:39:56.229Z,2.45
2023-01-18T20:45:18.092Z,2.56
2023-01-18T20:50:40.891Z,2.55
2023-01-18T20:56:05.215Z,2.53
2023-01-18T21:01:27.913Z,2.59
2023-01-18T21:06:49.948Z,2.43
2023-01-18T21:12:11.916Z,2.60
2023-01-18T21:17:33.806Z,2.71
2023-01-18T21:22:59.954Z,2.63
2023-01-18T21:28:22.827Z,2.72
2023-01-18T21:33:44.712Z,2.67
2023-01-18T21:39:06.644Z,2.72
2023-01-18T21:44:28.956Z,2.86
2023-01-18T21:50:16.593Z,2.86
2023-01-18T21:55:33.270Z,2.71
2023-01-18T22:00:55.191Z,2.86
2023-01-18T22:06:17.138Z,2.86
2023-01-18T22:11:39.128Z,2.78
2023-01-18T22:17:01.020Z,2.87
2023-01-18T22:22:23.913Z,2.87
2023-01-18T22:27:46.136Z,2.85
2023-01-18T22:33:08.369Z,2.98
2023-01-18T22:38:31.448Z,2.99
2023-01-18T22:43:54.603Z,3.03
2023-01-18T22:49:16.593Z,3.03
2023-01-18T22:54:38.476Z,3.00
2023-01-18T23:00:00.359Z,3.09
2023-01-18T23:05:22.257Z,2.91
2023-01-18T23:10:44.200Z,3.05
2023-01-18T23:16:08.670Z,3.17
2023-01-18T23:21:30.552Z,3.16
2023-01-18T23:26:52.474Z,3.08
2023-01-18T23:32:14.401Z,3.08
2023-01-18T23:37:36.293Z,3.04
2023-01-18T23:42:58.137Z,3.03
2023-01-18T23:48:20.311Z,3.08
2023-01-18T23:53:42.264Z,3.00
2023-01-18T23:59:04.110Z,3.04
